Time;durP1;ratioP1;P1;durP2;ratioP2;P2;SDS_P1;SDS_P2;PMS_P1;PMS_P2;Temp;Humidity;BMP_temperature;BMP_pressure;BME280_temperature;BME280_humidity;BME280_pressure;Samples;Min_cycle;Max_cycle;Signal;HPM_P1;HPM_P2
2023/10/15 00:08:43;;;;;;;5.07;1.30;;;;;;;7.13;65.70;100672.47;21064568;28;20201;-82
2023/10/15 00:18:47;;;;;;;7.67;1.10;;;;;;;7.18;64.56;100674.34;21064710;28;20223;-81
2023/10/15 00:28:48;;;;;;;6.70;1.40;;;;;;;6.51;65.85;100668.59;21066546;28;20187;-81
2023/10/15 00:38:52;;;;;;;7.27;1.83;;;;;;;7.08;63.97;100669.69;21045241;28;20215;-83
2023/10/15 00:48:56;;;;;;;6.00;1.00;;;;;;;7.32;62.11;100664.94;21061779;28;20301;-80
2023/10/15 00:59:13;;;;;;;3.77;1.10;;;;;;;7.11;63.02;100660.72;21053585;28;20273;-82
2023/10/15 01:09:18;;;;;;;4.37;0.90;;;;;;;6.73;64.04;100650.50;21071767;28;20198;-86
2023/10/15 01:19:31;;;;;;;5.90;0.90;;;;;;;7.17;64.17;100645.53;21060043;28;20273;-80
2023/10/15 01:29:35;;;;;;;6.23;1.10;;;;;;;7.28;63.12;100646.25;21080024;28;20217;-81
2023/10/15 01:39:39;;;;;;;7.70;0.97;;;;;;;6.98;62.56;100641.00;21085038;28;20224;-81
2023/10/15 01:49:42;;;;;;;3.23;1.37;;;;;;;6.66;65.48;100691.97;21084783;28;20225;-83
2023/10/15 01:59:45;;;;;;;6.63;2.23;;;;;;;7.01;66.89;100674.00;21076799;28;20344;-80
2023/10/15 02:09:48;;;;;;;7.90;4.10;;;;;;;6.94;67.16;100689.16;21061937;28;20560;-81
2023/10/15 02:19:49;;;;;;;8.50;4.60;;;;;;;7.05;66.94;100689.03;21039020;28;20221;-81
2023/10/15 02:29:53;;;;;;;7.63;5.30;;;;;;;6.84;67.53;100691.22;21074751;28;20195;-81
2023/10/15 02:39:57;;;;;;;9.37;4.77;;;;;;;6.73;67.80;100684.91;21079562;28;20476;-80
2023/10/15 02:50:03;;;;;;;5.67;4.77;;;;;;;7.36;66.73;100669.94;21067992;28;20510;-81
2023/10/15 03:00:12;;;;;;;8.17;4.73;;;;;;;7.34;67.20;100684.22;21083334;28;20234;-82
2023/10/15 03:10:21;;;;;;;8.60;4.60;;;;;;;7.13;66.70;100682.81;21074160;28;20234;-81
2023/10/15 03:20:26;;;;;;;10.47;4.30;;;;;;;7.24;66.13;100689.97;21060104;28;20226;-82
2023/10/15 03:30:33;;;;;;;5.40;3.57;;;;;;;7.58;64.95;100695.44;21069017;28;20205;-82
2023/10/15 03:40:42;;;;;;;7.33;3.03;;;;;;;6.84;68.44;100686.47;21052547;28;20224;-83
2023/10/15 03:50:54;;;;;;;5.90;2.67;;;;;;;7.10;68.86;100706.63;21059717;28;20240;-79
2023/10/15 04:01:12;;;;;;;6.67;3.27;;;;;;;7.18;70.97;100691.97;21070916;28;20221;-80
2023/10/15 04:11:29;;;;;;;4.00;3.03;;;;;;;6.98;70.47;100685.78;21064787;28;20199;-79
2023/10/15 04:21:30;;;;;;;7.70;3.50;;;;;;;6.26;73.25;100685.59;21080558;28;20225;-83
2023/10/15 04:31:33;;;;;;;8.43;3.70;;;;;;;6.40;72.90;100677.38;21077066;28;20588;-81
2023/10/15 04:41:35;;;;;;;10.77;4.97;;;;;;;6.54;73.30;100673.63;21063680;28;20230;-81
2023/10/15 04:51:43;;;;;;;9.67;4.07;;;;;;;6.42;72.85;100673.16;21090249;27;20639;-78
2023/10/15 05:01:46;;;;;;;4.80;3.63;;;;;;;6.08;74.31;100656.38;21090104;28;20229;-79
2023/10/15 05:11:50;;;;;;;4.67;2.60;;;;;;;6.39;73.00;100656.97;21083526;28;20285;-81
2023/10/15 05:21:52;;;;;;;3.57;1.80;;;;;;;6.83;71.62;100668.03;21081618;28;20245;-85
2023/10/15 05:31:57;;;;;;;2.10;1.90;;;;;;;6.49;71.45;100676.47;21087725;28;20195;-80
2023/10/15 05:41:59;;;;;;;2.70;1.53;;;;;;;6.51;71.08;100670.56;21083949;28;20226;-80
2023/10/15 05:52:02;;;;;;;4.13;1.20;;;;;;;6.38;71.83;100688.84;21065876;28;20627;-79
2023/10/15 06:02:04;;;;;;;2.23;0.70;;;;;;;6.27;72.04;100698.44;21083140;28;20669;-87
2023/10/15 06:12:07;;;;;;;0.90;0.50;;;;;;;6.33;72.51;100691.69;21079861;28;20564;-82
2023/10/15 06:22:10;;;;;;;2.17;0.67;;;;;;;6.33;72.11;100707.63;21083566;28;20218;-79
2023/10/15 06:32:13;;;;;;;2.47;0.70;;;;;;;6.58;71.23;100710.22;21075262;28;20191;-81
2023/10/15 06:42:14;;;;;;;0.90;0.53;;;;;;;6.50;70.50;100708.88;21071984;28;20218;-86
2023/10/15 06:52:18;;;;;;;6.17;0.70;;;;;;;6.30;71.75;100723.03;21060171;28;20230;-80
2023/10/15 07:02:19;;;;;;;1.90;0.73;;;;;;;6.32;71.65;100736.72;21064919;28;20225;-80
2023/10/15 07:12:23;;;;;;;3.47;0.80;;;;;;;6.74;70.33;100744.47;21057859;28;20198;-81
2023/10/15 07:22:24;;;;;;;3.30;1.07;;;;;;;6.65;70.49;100766.63;21079680;28;20214;-82
2023/10/15 07:32:27;;;;;;;1.73;0.90;;;;;;;6.42;71.66;100784.97;21060812;28;20199;-81
2023/10/15 07:42:29;;;;;;;1.97;0.90;;;;;;;6.87;71.74;100785.75;21052985;28;20511;-80
2023/10/15 07:52:32;;;;;;;1.90;1.40;;;;;;;6.48;72.16;100789.44;21075243;28;20226;-81
2023/10/15 08:02:35;;;;;;;3.83;2.40;;;;;;;6.90;71.33;100801.94;21072705;28;20222;-84
2023/10/15 08:12:38;;;;;;;1.33;1.10;;;;;;;6.87;69.71;100816.53;21081720;28;20214;-81
2023/10/15 08:22:40;;;;;;;3.00;0.67;;;;;;;6.62;70.73;100844.69;21093187;28;20217;-82
2023/10/15 08:32:44;;;;;;;1.43;0.93;;;;;;;7.49;67.85;100838.09;21102897;28;20213;-81
2023/10/15 08:42:51;;;;;;;2.33;1.57;;;;;;;7.81;67.23;100843.03;21082758;28;20257;-80
2023/10/15 08:52:54;;;;;;;2.30;1.87;;;;;;;6.89;67.25;100870.22;21088447;28;20236;-80
2023/10/15 09:02:57;;;;;;;2.73;0.97;;;;;;;7.10;66.47;100885.72;21092503;28;20218;-80
2023/10/15 09:13:00;;;;;;;3.67;1.20;;;;;;;7.30;66.67;100891.13;21085485;28;20480;-81
2023/10/15 09:23:02;;;;;;;1.87;0.70;;;;;;;7.17;64.37;100913.38;21088349;28;20226;-82
2023/10/15 09:33:12;;;;;;;2.70;0.60;;;;;;;6.71;64.07;100933.28;21071983;28;20199;-81
2023/10/15 09:43:14;;;;;;;0.83;0.40;;;;;;;7.08;63.47;100932.75;21077812;28;20230;-80
2023/10/15 09:53:20;;;;;;;3.70;0.40;;;;;;;6.95;65.14;100953.00;21079887;28;20245;-82
2023/10/15 10:03:59;;;;;;;0.83;0.23;;;;;;;6.83;66.62;100958.94;21084162;28;20258;-81
2023/10/15 10:14:24;;;;;;;0.50;0.43;;;;;;;7.57;66.98;100969.06;21068442;28;20255;-82
2023/10/15 10:24:41;;;;;;;0.63;0.43;;;;;;;7.52;64.36;100971.94;21067612;28;20219;-81
2023/10/15 10:34:45;;;;;;;0.73;0.50;;;;;;;7.58;63.93;100981.09;21061127;28;20202;-82
2023/10/15 10:44:47;;;;;;;3.33;0.50;;;;;;;7.56;63.30;100981.38;21073706;28;20219;-81
2023/10/15 10:54:50;;;;;;;0.43;0.17;;;;;;;7.19;60.61;100972.69;21067307;28;20234;-82
2023/10/15 11:04:55;;;;;;;2.07;0.30;;;;;;;8.55;59.12;100966.94;21056968;28;20619;-80
2023/10/15 11:14:58;;;;;;;0.40;0.33;;;;;;;7.74;57.06;100974.25;21064064;28;20198;-86
2023/10/15 11:25:00;;;;;;;1.10;0.50;;;;;;;8.43;54.93;100967.34;21063396;28;20221;-82
2023/10/15 11:35:07;;;;;;;3.23;0.27;;;;;;;8.43;54.72;100969.31;21052460;28;20237;-79
2023/10/15 11:45:16;;;;;;;2.43;0.40;;;;;;;8.83;53.63;100973.59;21061583;28;20625;-82
2023/10/15 11:55:23;;;;;;;1.10;0.47;;;;;;;8.46;52.65;100986.34;21061477;28;20575;-81
2023/10/15 12:05:24;;;;;;;2.07;0.57;;;;;;;9.04;51.84;100987.03;21049265;28;20638;-80
2023/10/15 12:15:30;;;;;;;1.97;0.20;;;;;;;7.97;50.94;100995.88;21067419;28;20211;-83
2023/10/15 12:25:32;;;;;;;0.67;0.10;;;;;;;8.36;49.48;101003.31;21062822;28;20362;-81
2023/10/15 12:35:35;;;;;;;2.37;0.27;;;;;;;8.73;48.93;100986.59;21055998;28;20228;-81
2023/10/15 12:45:37;;;;;;;2.93;0.13;;;;;;;8.25;47.06;101001.75;21071018;28;20226;-81
2023/10/15 12:55:40;;;;;;;0.97;0.40;;;;;;;8.78;48.84;100998.91;21069459;28;20400;-82
2023/10/15 13:05:41;;;;;;;1.13;0.20;;;;;;;9.22;49.00;101009.81;21082141;28;20223;-81
2023/10/15 13:15:45;;;;;;;0.30;0.30;;;;;;;9.10;50.07;101012.25;21089604;28;20227;-82
2023/10/15 13:25:47;;;;;;;1.03;0.30;;;;;;;9.47;50.07;101012.22;21086060;28;20304;-82
2023/10/15 13:35:50;;;;;;;1.37;0.40;;;;;;;9.15;48.11;101021.41;21084281;28;20240;-82
2023/10/15 13:45:52;;;;;;;1.63;0.60;;;;;;;9.67;48.30;101039.19;21054579;28;20194;-82
2023/10/15 13:55:56;;;;;;;1.27;0.40;;;;;;;9.22;45.77;101044.34;21070648;28;20226;-88
2023/10/15 14:05:57;;;;;;;3.30;0.47;;;;;;;8.79;46.79;101054.72;21060394;28;20191;-81
2023/10/15 14:16:02;;;;;;;0.20;0.10;;;;;;;9.49;46.63;101052.06;21071788;28;20244;-82
2023/10/15 14:26:05;;;;;;;4.30;0.73;;;;;;;8.78;45.77;101060.66;21078264;28;20522;-81
2023/10/15 14:36:09;;;;;;;1.70;0.30;;;;;;;8.48;46.97;101067.41;21073262;28;20218;-81
2023/10/15 14:46:11;;;;;;;2.00;0.30;;;;;;;8.69;46.80;101075.34;21069871;28;20264;-81
2023/10/15 14:56:14;;;;;;;1.10;0.50;;;;;;;8.68;47.73;101078.44;21071292;28;20649;-82
2023/10/15 15:06:16;;;;;;;1.13;0.20;;;;;;;8.70;48.49;101084.59;21028329;28;20202;-81
2023/10/15 15:16:19;;;;;;;1.57;0.47;;;;;;;8.19;48.91;101103.88;21055376;28;20421;-79
2023/10/15 15:26:22;;;;;;;0.37;0.23;;;;;;;8.82;50.23;101101.00;21046152;28;20209;-82
2023/10/15 15:36:25;;;;;;;1.37;0.30;;;;;;;7.63;52.81;101127.56;21060311;28;20564;-80
2023/10/15 15:46:28;;;;;;;0.60;0.30;;;;;;;8.39;52.50;101123.31;21033379;28;20654;-80
2023/10/15 15:56:31;;;;;;;0.80;0.20;;;;;;;7.71;56.57;101131.69;21020931;28;20227;-85
2023/10/15 16:06:33;;;;;;;3.57;0.30;;;;;;;7.53;59.79;101132.41;21035249;28;20473;-87
2023/10/15 16:16:36;;;;;;;0.67;0.37;;;;;;;7.21;61.13;101139.22;21030612;28;20228;-81
2023/10/15 16:26:38;;;;;;;0.40;0.27;;;;;;;7.57;60.88;101145.50;21017590;28;20203;-81
2023/10/15 16:36:41;;;;;;;0.90;0.65;;;;;;;6.68;63.88;101160.38;21047482;28;20229;-83
2023/10/15 16:46:43;;;;;;;2.97;1.03;;;;;;;7.51;61.86;101165.44;21061619;28;20206;-80
2023/10/15 16:56:46;;;;;;;2.70;1.17;;;;;;;6.86;63.27;101184.13;21064926;28;20650;-81
2023/10/15 17:06:47;;;;;;;2.03;1.43;;;;;;;7.19;61.79;101191.88;21056085;28;20472;-80
2023/10/15 17:16:51;;;;;;;2.70;1.97;;;;;;;6.74;63.80;101211.56;21080053;28;20223;-86
2023/10/15 17:26:55;;;;;;;3.70;3.07;;;;;;;6.97;63.40;101212.94;21075609;28;20237;-80
2023/10/15 17:37:01;;;;;;;6.70;4.90;;;;;;;7.04;61.67;101217.09;21069509;28;20288;-80
2023/10/15 17:47:04;;;;;;;4.30;3.83;;;;;;;6.40;63.19;101228.91;21048542;28;20249;-80
2023/10/15 17:57:07;;;;;;;4.17;2.30;;;;;;;6.43;62.93;101233.94;21060773;28;20915;-80
2023/10/15 18:07:09;;;;;;;3.30;1.93;;;;;;;6.56;62.69;101236.19;21062401;28;20607;-85
2023/10/15 18:17:14;;;;;;;2.00;1.20;;;;;;;6.94;61.69;101242.31;21074393;28;20305;-81
2023/10/15 18:27:16;;;;;;;2.90;2.00;;;;;;;6.71;63.16;101251.28;21071470;28;20333;-80
2023/10/15 18:37:19;;;;;;;5.20;2.80;;;;;;;6.53;63.41;101261.06;21079911;28;20569;-79
2023/10/15 18:47:21;;;;;;;3.70;1.87;;;;;;;6.77;62.61;101266.94;21072723;28;20222;-81
2023/10/15 18:57:26;;;;;;;2.90;1.87;;;;;;;6.65;63.93;101275.59;21076714;28;20593;-81
2023/10/15 19:07:28;;;;;;;3.10;1.90;;;;;;;6.64;63.75;101281.47;21071537;28;20198;-84
2023/10/15 19:17:31;;;;;;;3.90;2.07;;;;;;;6.67;63.99;101280.94;21054181;28;20653;-81
2023/10/15 19:27:34;;;;;;;4.20;2.40;;;;;;;6.59;64.29;101297.16;21059666;28;20598;-81
2023/10/15 19:37:37;;;;;;;6.90;2.97;;;;;;;6.10;65.98;101299.56;21077269;28;20222;-81
2023/10/15 19:47:40;;;;;;;10.67;5.93;;;;;;;6.35;65.37;101303.56;21060638;28;20797;-81
2023/10/15 19:57:45;;;;;;;8.70;5.87;;;;;;;6.08;66.36;101314.94;21062229;28;20225;-80
2023/10/15 20:07:47;;;;;;;7.97;4.30;;;;;;;6.08;66.92;101320.50;21061463;28;20198;-88
2023/10/15 20:17:51;;;;;;;5.50;3.10;;;;;;;6.28;66.19;101331.78;21059180;28;20225;-80
2023/10/15 20:27:53;;;;;;;5.57;2.27;;;;;;;5.79;66.86;101329.34;21055225;28;20613;-81
2023/10/15 20:37:57;;;;;;;2.50;1.87;;;;;;;5.87;67.13;101320.44;21055107;28;20219;-90
2023/10/15 20:47:59;;;;;;;4.00;1.83;;;;;;;5.88;66.96;101316.53;21047393;28;20186;-80
2023/10/15 20:58:02;;;;;;;3.27;1.67;;;;;;;6.06;66.05;101318.00;21065390;28;20323;-81
2023/10/15 21:08:06;;;;;;;4.07;1.43;;;;;;;5.83;66.24;101316.53;21071590;28;20263;-88
2023/10/15 21:18:11;;;;;;;4.83;1.70;;;;;;;5.85;67.48;101324.63;21082698;28;20250;-80
2023/10/15 21:28:14;;;;;;;3.93;1.33;;;;;;;5.98;66.72;101326.91;21082612;28;20197;-88
2023/10/15 21:38:20;;;;;;;2.93;1.30;;;;;;;5.63;68.63;101313.63;21091487;28;20302;-88
2023/10/15 21:48:22;;;;;;;5.53;1.30;;;;;;;5.31;69.13;101322.13;21088914;28;20218;-80
2023/10/15 21:58:26;;;;;;;2.87;1.07;;;;;;;5.43;68.15;101325.53;21078229;28;20233;-81
2023/10/15 22:08:28;;;;;;;5.23;1.87;;;;;;;5.50;68.17;101319.69;21060466;28;20203;-80
2023/10/15 22:18:31;;;;;;;3.40;1.60;;;;;;;5.74;67.93;101304.16;21057331;28;20697;-80
2023/10/15 22:28:33;;;;;;;3.23;1.37;;;;;;;5.81;66.95;101293.59;21060471;28;20194;-81
2023/10/15 22:38:38;;;;;;;5.77;1.93;;;;;;;5.51;67.70;101293.47;21069748;28;20229;-80
2023/10/15 22:48:40;;;;;;;2.43;1.60;;;;;;;5.51;67.22;101299.88;21067439;28;20502;-84
2023/10/15 22:58:43;;;;;;;4.13;1.93;;;;;;;5.26;68.28;101294.16;21081253;28;20230;-80
2023/10/15 23:08:50;;;;;;;5.43;1.70;;;;;;;5.57;67.62;101295.19;21053866;28;20525;-81
2023/10/15 23:18:53;;;;;;;4.73;1.30;;;;;;;5.39;68.26;101296.47;21077212;28;20254;-82
2023/10/15 23:28:55;;;;;;;5.17;2.20;;;;;;;5.54;67.59;101287.34;21073774;28;20194;-81
2023/10/15 23:38:59;;;;;;;5.17;2.10;;;;;;;5.43;68.80;101285.63;21071812;28;20269;-80
2023/10/15 23:49:05;;;;;;;3.63;1.87;;;;;;;5.12;70.18;101285.44;21061898;28;20214;-86
2023/10/15 23:59:08;;;;;;;5.30;2.17;;;;;;;4.99;70.18;101274.75;21069207;28;20223;-80
